METAR Data
IDs: Format: Raw Decoded Include TAF

Data at: 1327 UTC 21 Apr 2021

KHWD 211254Z AUTO 00000KT 10SM OVC016 11/07 A2986 RMK AO2 SLP122 T01060072
No TAF found for KHWD

KBFL 211254Z 34006KT 9SM CLR 10/03 A2986 RMK AO2 SLP106 T01000033

KBFL 211120Z 2112/2212 VRB05KT P6SM FEW100
  FM211500 32009KT P6SM SKC


KIFP 211315Z AUTO 28004KT 10SM CLR 18/M06 A2964 RMK AO2

KIFP 211123Z 2112/2212 16007KT P6SM SCT250
  FM211600 18015G25KT P6SM FEW200
  FM220200 18008KT P6SM SKC